createdAt,value
2019-01-11T00:09:58.066Z,1.90
2019-01-11T00:19:24.551Z,1.80
2019-01-11T00:28:13.998Z,1.90
2019-01-11T00:34:29.246Z,1.90
2019-01-11T00:37:49.988Z,1.80
2019-01-11T00:43:15.172Z,1.80
2019-01-11T00:46:18.874Z,1.90
2019-01-11T00:52:04.103Z,1.80
2019-01-11T00:55:09.030Z,1.90
2019-01-11T01:04:25.815Z,2.00
2019-01-11T01:11:07.856Z,2.10
2019-01-11T01:14:25.000Z,2.10
2019-01-11T01:17:29.178Z,2.10
2019-01-11T01:22:45.620Z,2.10
2019-01-11T01:25:50.706Z,2.10
2019-01-11T01:34:30.610Z,2.20
2019-01-11T01:37:29.574Z,2.30
2019-01-11T01:44:55.009Z,2.30
2019-01-11T01:48:02.449Z,2.20
2019-01-11T01:54:25.252Z,2.30
2019-01-11T01:57:05.771Z,2.30
2019-01-11T02:00:07.258Z,2.30
2019-01-11T02:06:04.854Z,2.30
2019-01-11T02:09:04.676Z,2.40
2019-01-11T02:11:49.555Z,2.40
2019-01-11T02:14:47.135Z,2.40
2019-01-11T02:17:29.022Z,2.40
2019-01-11T02:20:53.975Z,2.50
2019-01-11T02:23:30.366Z,2.40
2019-01-11T02:29:00.838Z,2.50
2019-01-11T02:32:18.352Z,2.50
2019-01-11T02:42:02.212Z,2.60
2019-01-11T02:48:03.831Z,2.60
2019-01-11T02:50:54.613Z,2.60
2019-01-11T02:56:42.208Z,2.50
2019-01-11T02:59:34.422Z,2.50
2019-01-11T03:02:34.792Z,2.60
2019-01-11T03:05:14.439Z,2.40
2019-01-11T03:08:36.107Z,2.70
2019-01-11T03:10:51.726Z,2.80
2019-01-11T03:13:32.212Z,2.70
2019-01-11T03:16:00.060Z,2.70
2019-01-11T03:18:55.295Z,2.70
2019-01-11T03:22:01.940Z,2.80
2019-01-11T03:24:56.082Z,2.90
2019-01-11T03:27:50.053Z,2.80
2019-01-11T03:33:25.814Z,2.80
2019-01-11T03:46:12.414Z,3.20
2019-01-11T03:48:44.301Z,2.70
2019-01-11T03:51:48.321Z,3.00
2019-01-11T03:53:53.058Z,2.80
2019-01-11T03:56:52.429Z,2.90
2019-01-11T04:00:38.966Z,2.90
2019-01-11T04:02:55.860Z,2.90
2019-01-11T04:05:43.922Z,2.90
2019-01-11T04:08:39.761Z,2.80
2019-01-11T04:14:34.398Z,3.00
2019-01-11T04:17:44.859Z,3.10
2019-01-11T04:20:20.642Z,3.10
2019-01-11T04:26:18.636Z,3.00
2019-01-11T04:28:58.625Z,3.20
2019-01-11T04:34:52.427Z,2.90
2019-01-11T04:40:44.693Z,2.70
2019-01-11T04:43:23.315Z,3.00
2019-01-11T04:45:50.119Z,3.30
2019-01-11T04:48:47.406Z,3.30
2019-01-11T04:51:14.094Z,3.30
2019-01-11T04:53:43.531Z,3.30
2019-01-11T04:59:22.927Z,3.30
2019-01-11T05:02:14.548Z,3.30
2019-01-11T05:05:09.132Z,3.20
2019-01-11T05:07:40.254Z,3.20
2019-01-11T05:10:11.854Z,3.30
2019-01-11T05:12:38.670Z,3.30
2019-01-11T05:15:32.986Z,3.30
2019-01-11T05:18:43.818Z,3.20
2019-01-11T05:21:35.574Z,3.20
2019-01-11T05:24:37.867Z,3.20
2019-01-11T05:27:28.622Z,3.30
2019-01-11T05:32:45.289Z,3.30
2019-01-11T05:35:26.839Z,3.20
2019-01-11T05:38:03.841Z,3.20
2019-01-11T05:41:10.694Z,3.20
2019-01-11T05:50:14.163Z,3.40
2019-01-11T05:55:52.034Z,3.30
2019-01-11T05:58:54.023Z,3.40
2019-01-11T06:01:56.236Z,3.30
2019-01-11T06:05:01.803Z,3.30
2019-01-11T06:07:52.478Z,3.20
2019-01-11T06:10:24.141Z,3.30
2019-01-11T06:13:10.072Z,3.30
2019-01-11T06:15:44.075Z,3.00
2019-01-11T06:18:08.405Z,3.20
2019-01-11T06:20:39.299Z,3.20
2019-01-11T06:23:48.123Z,3.30
2019-01-11T06:35:26.911Z,3.30
2019-01-11T06:38:00.208Z,3.40
2019-01-11T06:40:46.481Z,3.30
2019-01-11T06:49:39.177Z,3.30
2019-01-11T06:52:44.309Z,3.50
2019-01-11T06:56:04.775Z,3.50
2019-01-11T06:58:46.679Z,3.40
2019-01-11T07:01:42.601Z,3.40
2019-01-11T07:04:18.230Z,3.20
2019-01-11T07:06:52.765Z,3.50
2019-01-11T07:09:37.015Z,3.50
2019-01-11T07:12:59.864Z,3.50
2019-01-11T07:18:34.053Z,3.50
2019-01-11T07:24:15.268Z,3.00
2019-01-11T07:26:48.837Z,3.40
2019-01-11T07:32:16.275Z,3.40
2019-01-11T07:35:28.527Z,3.40
2019-01-11T07:38:17.376Z,3.30
2019-01-11T07:40:56.532Z,3.30
2019-01-11T07:43:37.561Z,3.40
2019-01-11T07:49:32.553Z,3.30
2019-01-11T07:52:22.460Z,3.30
2019-01-11T07:55:08.899Z,3.10
2019-01-11T07:58:21.510Z,3.10
2019-01-11T08:04:25.322Z,3.10
2019-01-11T08:06:52.743Z,3.00
2019-01-11T08:10:07.101Z,2.50
2019-01-11T08:12:47.935Z,2.90
2019-01-11T08:15:51.557Z,2.90
2019-01-11T08:21:56.822Z,3.00
2019-01-11T08:24:41.119Z,2.90
2019-01-11T08:27:14.157Z,2.90
2019-01-11T08:33:48.055Z,2.90
2019-01-11T08:36:38.702Z,2.80
2019-01-11T08:39:25.384Z,2.90
2019-01-11T08:42:16.352Z,2.80
2019-01-11T08:45:05.503Z,2.90
2019-01-11T08:47:36.095Z,2.90
2019-01-11T08:50:45.939Z,2.80
2019-01-11T08:53:13.081Z,3.00
2019-01-11T08:55:47.836Z,2.90
2019-01-11T08:58:28.707Z,3.00
2019-01-11T09:00:55.516Z,3.00
2019-01-11T09:03:57.766Z,3.00
2019-01-11T09:06:19.772Z,3.00
2019-01-11T09:09:14.022Z,3.10
2019-01-11T09:11:45.857Z,3.10
2019-01-11T09:14:14.366Z,3.20
2019-01-11T09:16:53.356Z,3.30
2019-01-11T09:19:41.327Z,3.30
2019-01-11T09:22:31.429Z,2.90
2019-01-11T09:28:14.187Z,3.20
2019-01-11T09:33:49.648Z,3.20
2019-01-11T09:36:37.063Z,2.80
2019-01-11T09:39:28.599Z,3.40
2019-01-11T09:45:00.843Z,3.30
2019-01-11T09:47:30.371Z,3.30
2019-01-11T09:50:00.518Z,3.20
2019-01-11T09:52:27.334Z,3.30
2019-01-11T09:55:09.528Z,3.40
2019-01-11T09:57:39.106Z,3.40
2019-01-11T10:00:17.764Z,3.40
2019-01-11T10:02:46.931Z,3.40
2019-01-11T10:05:14.230Z,3.40
2019-01-11T10:07:41.348Z,3.40
2019-01-11T10:10:16.217Z,3.50
2019-01-11T10:12:43.039Z,3.40
2019-01-11T10:15:12.514Z,3.40
2019-01-11T10:17:50.245Z,3.30
2019-01-11T10:20:17.201Z,3.40
2019-01-11T10:23:02.660Z,3.40
2019-01-11T10:28:38.632Z,3.30
2019-01-11T10:31:05.628Z,3.50
2019-01-11T10:36:49.199Z,3.40
2019-01-11T10:39:37.663Z,3.60
2019-01-11T10:42:16.186Z,3.60
2019-01-11T10:47:53.369Z,3.40
2019-01-11T10:50:49.747Z,3.60
2019-01-11T10:53:07.693Z,3.60
2019-01-11T10:55:41.225Z,3.60
2019-01-11T10:58:29.325Z,3.60
2019-01-11T11:01:04.035Z,3.50
2019-01-11T11:03:42.395Z,3.50
2019-01-11T11:06:20.288Z,3.50
2019-01-11T11:08:50.682Z,3.60
2019-01-11T11:11:39.934Z,3.60
2019-01-11T11:14:06.931Z,3.60
2019-01-11T11:16:36.003Z,3.50
2019-01-11T11:19:14.982Z,3.60
2019-01-11T11:22:03.817Z,3.60
2019-01-11T11:24:55.430Z,3.60
2019-01-11T11:27:28.307Z,3.70
2019-01-11T11:30:14.018Z,3.80
2019-01-11T11:33:44.606Z,3.80
2019-01-11T11:35:56.660Z,3.90
2019-01-11T11:38:47.305Z,3.90
2019-01-11T11:41:38.066Z,3.80
2019-01-11T11:44:09.848Z,3.80
2019-01-11T11:46:58.845Z,3.80
2019-01-11T11:50:12.919Z,3.80
2019-01-11T11:52:39.769Z,3.70
2019-01-11T11:55:09.804Z,3.80
2019-01-11T11:57:47.286Z,3.80
2019-01-11T12:06:25.375Z,4.00
2019-01-11T12:12:50.409Z,4.10
2019-01-11T12:15:20.517Z,4.00
2019-01-11T12:17:54.267Z,4.00
2019-01-11T12:20:46.321Z,4.10
2019-01-11T12:23:41.405Z,4.00
2019-01-11T12:26:13.068Z,4.10
2019-01-11T12:28:45.508Z,4.20
2019-01-11T12:31:34.323Z,4.20
2019-01-11T12:34:16.387Z,4.30
2019-01-11T12:36:48.887Z,4.30
2019-01-11T12:42:57.791Z,4.20
2019-01-11T12:45:30.059Z,4.40
2019-01-11T12:48:24.056Z,4.20
2019-01-11T12:51:31.900Z,4.20
2019-01-11T12:54:16.766Z,4.40
2019-01-11T12:57:13.707Z,4.20
2019-01-11T13:00:08.399Z,4.20
2019-01-11T13:02:43.465Z,4.30
2019-01-11T13:05:29.601Z,4.20
2019-01-11T13:17:03.299Z,4.30
2019-01-11T13:19:51.851Z,4.20
2019-01-11T13:22:24.838Z,4.20
2019-01-11T13:28:04.802Z,4.10
2019-01-11T13:30:47.003Z,4.10
2019-01-11T13:34:19.284Z,4.10
2019-01-11T13:36:10.524Z,4.10
2019-01-11T13:38:49.472Z,4.00
2019-01-11T13:44:06.156Z,3.90
2019-01-11T13:46:36.089Z,4.10
2019-01-11T13:49:03.510Z,4.10
2019-01-11T13:51:30.280Z,3.90
2019-01-11T13:54:00.014Z,4.00
2019-01-11T13:56:46.319Z,3.90
2019-01-11T13:59:20.104Z,3.80
2019-01-11T14:01:59.008Z,3.90
2019-01-11T14:04:35.101Z,3.90
2019-01-11T14:07:52.717Z,3.90
2019-01-11T14:10:44.441Z,3.90
2019-01-11T14:13:20.243Z,3.80
2019-01-11T14:16:07.738Z,3.90
2019-01-11T14:18:45.331Z,3.90
2019-01-11T14:21:24.937Z,3.50
2019-01-11T14:24:20.316Z,3.80
2019-01-11T14:26:49.067Z,3.90
2019-01-11T14:29:22.994Z,3.80
2019-01-11T14:32:17.264Z,3.80
2019-01-11T14:34:48.389Z,3.70
2019-01-11T14:37:22.200Z,3.80
2019-01-11T14:40:11.196Z,3.70
2019-01-11T14:43:27.435Z,3.70
2019-01-11T14:46:06.115Z,3.70
2019-01-11T14:48:58.810Z,3.80
2019-01-11T14:52:03.778Z,3.90
2019-01-11T14:54:42.585Z,3.70
2019-01-11T14:57:09.748Z,3.80
2019-01-11T14:59:38.376Z,3.70
2019-01-11T15:02:26.822Z,3.70
2019-01-11T15:05:23.597Z,3.60
2019-01-11T15:07:53.647Z,3.60
2019-01-11T15:10:41.630Z,3.60
2019-01-11T15:13:15.236Z,3.70
2019-01-11T15:15:50.927Z,3.10
2019-01-11T15:18:20.506Z,3.60
2019-01-11T15:20:51.098Z,3.70
2019-01-11T15:23:22.113Z,3.60
2019-01-11T15:25:48.912Z,3.50
2019-01-11T15:28:15.596Z,3.70
2019-01-11T15:30:46.050Z,3.70
2019-01-11T15:33:12.937Z,3.60
2019-01-11T15:36:04.595Z,3.60
2019-01-11T15:38:44.418Z,3.70
2019-01-11T15:41:11.234Z,3.60
2019-01-11T15:44:04.382Z,3.60
2019-01-11T15:46:40.407Z,3.60
2019-01-11T15:49:07.404Z,3.50
2019-01-11T15:51:41.946Z,3.60
2019-01-11T15:54:08.942Z,3.60
2019-01-11T15:56:38.374Z,3.60
2019-01-11T15:59:05.082Z,3.50
2019-01-11T16:01:31.878Z,3.60
2019-01-11T16:04:02.945Z,3.60
2019-01-11T16:06:29.940Z,3.50
2019-01-11T16:09:12.355Z,3.40
2019-01-11T16:11:45.694Z,3.40
2019-01-11T16:14:50.487Z,3.40
2019-01-11T16:17:20.858Z,3.50
2019-01-11T16:19:47.493Z,3.40
2019-01-11T16:22:16.218Z,3.40
2019-01-11T16:24:45.889Z,3.30
2019-01-11T16:27:12.597Z,3.30
2019-01-11T16:29:44.467Z,3.30
2019-01-11T16:35:10.530Z,3.30
2019-01-11T16:38:32.238Z,3.30
2019-01-11T16:41:10.437Z,3.10
2019-01-11T16:43:48.157Z,3.20
2019-01-11T16:46:36.274Z,3.20
2019-01-11T16:52:20.047Z,3.00
2019-01-11T16:55:06.489Z,3.10
2019-01-11T17:01:00.035Z,3.10
2019-01-11T17:10:00.546Z,3.10
2019-01-11T17:12:33.765Z,3.00
2019-01-11T17:15:19.157Z,3.00
2019-01-11T17:18:05.366Z,3.10
2019-01-11T17:20:46.965Z,3.00
2019-01-11T17:33:05.586Z,2.60
2019-01-11T17:35:35.857Z,3.10
2019-01-11T17:38:08.053Z,3.10
2019-01-11T17:40:42.428Z,3.00
2019-01-11T17:43:20.490Z,2.90
2019-01-11T17:46:12.799Z,3.00
2019-01-11T17:48:58.166Z,2.90
2019-01-11T17:51:35.915Z,2.80
2019-01-11T17:54:06.510Z,2.80
2019-01-11T17:57:01.197Z,2.50
2019-01-11T17:59:52.362Z,3.00
2019-01-11T18:02:38.930Z,2.70
2019-01-11T18:08:02.699Z,2.90
2019-01-11T18:10:53.751Z,2.80
2019-01-11T18:17:07.941Z,2.70
2019-01-11T18:19:36.734Z,2.80
2019-01-11T18:23:50.153Z,2.70
2019-01-11T18:26:03.582Z,2.60
2019-01-11T18:28:30.339Z,2.80
2019-01-11T18:31:07.799Z,2.80
2019-01-11T18:33:34.204Z,2.80
2019-01-11T18:36:00.917Z,2.70
2019-01-11T18:38:34.059Z,2.60
2019-01-11T18:41:29.054Z,2.80
2019-01-11T18:44:14.828Z,2.70
2019-01-11T18:46:56.739Z,2.70
2019-01-11T18:49:50.078Z,2.70
2019-01-11T18:52:31.143Z,2.40
2019-01-11T18:55:19.342Z,2.50
2019-01-11T18:58:24.437Z,2.50
2019-01-11T19:04:08.227Z,2.60
2019-01-11T19:07:12.896Z,2.50
2019-01-11T19:12:50.696Z,2.20
2019-01-11T19:15:41.790Z,2.60
2019-01-11T19:18:51.547Z,2.60
2019-01-11T19:24:12.593Z,2.60
2019-01-11T19:26:45.825Z,2.70
2019-01-11T19:29:24.031Z,2.70
2019-01-11T19:31:54.035Z,2.60
2019-01-11T19:34:20.797Z,2.50
2019-01-11T19:36:50.291Z,2.60
2019-01-11T19:39:26.849Z,2.50
2019-01-11T19:41:55.492Z,2.50
2019-01-11T19:44:30.883Z,2.60
2019-01-11T19:47:00.808Z,2.50
2019-01-11T19:49:28.823Z,2.50
2019-01-11T19:52:17.016Z,2.60
2019-01-11T19:54:46.856Z,2.60
2019-01-11T19:57:15.920Z,2.70
2019-01-11T19:59:49.294Z,2.50
2019-01-11T20:02:27.114Z,2.50
2019-01-11T20:05:13.802Z,2.40
2019-01-11T20:07:53.150Z,2.40
2019-01-11T20:10:32.691Z,2.50
2019-01-11T20:13:00.582Z,2.50
2019-01-11T20:15:49.315Z,2.50
2019-01-11T20:18:28.454Z,2.50
2019-01-11T20:21:01.251Z,2.50
2019-01-11T20:23:39.330Z,2.40
2019-01-11T20:26:19.771Z,2.40
2019-01-11T20:28:46.537Z,2.50
2019-01-11T20:31:34.543Z,2.40
2019-01-11T20:34:14.445Z,2.40
2019-01-11T20:36:45.984Z,2.60
2019-01-11T20:39:34.015Z,2.20
2019-01-11T20:42:06.227Z,2.50
2019-01-11T20:44:33.109Z,2.60
2019-01-11T20:49:55.181Z,2.50
2019-01-11T20:52:24.032Z,2.60
2019-01-11T20:54:51.902Z,2.60
2019-01-11T20:57:20.103Z,2.50
2019-01-11T20:59:48.091Z,2.50
2019-01-11T21:02:23.850Z,2.50
2019-01-11T21:04:52.756Z,2.50
2019-01-11T21:07:20.182Z,2.50
2019-01-11T21:09:57.017Z,2.60
2019-01-11T21:12:26.523Z,2.60
2019-01-11T21:15:10.082Z,2.80
2019-01-11T21:17:37.710Z,2.60
2019-01-11T21:20:26.333Z,2.60
2019-01-11T21:22:54.350Z,2.50
2019-01-11T21:25:21.232Z,2.60
2019-01-11T21:28:09.462Z,2.50
2019-01-11T21:30:42.730Z,2.60
2019-01-11T21:33:11.631Z,2.60
2019-01-11T21:38:50.027Z,2.60
2019-01-11T21:41:24.694Z,2.70
2019-01-11T21:44:14.775Z,2.60
2019-01-11T21:46:47.291Z,2.50
2019-01-11T21:49:20.568Z,2.60
2019-01-11T21:51:47.320Z,2.50
2019-01-11T21:54:17.495Z,2.50
2019-01-11T21:57:02.517Z,2.40
2019-01-11T21:59:59.739Z,2.50
2019-01-11T22:02:42.777Z,2.60
2019-01-11T22:05:33.561Z,2.50
2019-01-11T22:08:29.646Z,2.50
2019-01-11T22:11:30.572Z,2.40
2019-01-11T22:13:50.641Z,2.60
2019-01-11T22:16:49.193Z,2.50
2019-01-11T22:19:31.473Z,2.40
2019-01-11T22:22:06.391Z,2.30
2019-01-11T22:25:07.979Z,2.30
2019-01-11T22:27:47.856Z,2.40
2019-01-11T22:30:30.103Z,2.40
2019-01-11T22:38:55.169Z,2.30
2019-01-11T22:41:35.718Z,2.40
2019-01-11T22:44:07.203Z,2.30
2019-01-11T22:46:40.119Z,2.20
2019-01-11T22:52:21.390Z,2.30
2019-01-11T22:54:50.059Z,2.20
2019-01-11T22:57:49.704Z,2.20
2019-01-11T23:00:51.033Z,2.20
2019-01-11T23:03:24.273Z,2.10
2019-01-11T23:06:09.058Z,2.20
2019-01-11T23:08:45.751Z,2.10
2019-01-11T23:11:46.844Z,2.20
2019-01-11T23:14:19.702Z,2.30
2019-01-11T23:16:57.898Z,2.20
2019-01-11T23:19:54.022Z,2.10
2019-01-11T23:22:55.328Z,2.10
2019-01-11T23:25:30.927Z,2.20
2019-01-11T23:28:15.409Z,2.20
2019-01-11T23:40:01.873Z,2.20
2019-01-11T23:42:26.118Z,2.20
2019-01-11T23:45:14.194Z,2.30
2019-01-11T23:47:55.729Z,2.20
2019-01-11T23:53:43.678Z,2.20
2019-01-11T23:56:30.128Z,2.20
2019-01-11T23:59:06.592Z,2.20
